createdAt,value
2017-08-28T00:02:15.148Z,10.37
2017-08-28T00:04:42.765Z,11.43
2017-08-28T00:07:10.360Z,10.43
2017-08-28T00:09:38.304Z,9.50
2017-08-28T00:12:06.062Z,9.10
2017-08-28T00:14:33.658Z,9.27
2017-08-28T00:17:01.283Z,11.00
2017-08-28T00:19:28.864Z,13.20
2017-08-28T00:21:56.479Z,12.47
2017-08-28T00:24:24.110Z,10.50
2017-08-28T00:26:52.041Z,14.27
2017-08-28T00:29:19.654Z,13.60
2017-08-28T00:31:47.272Z,12.33
2017-08-28T00:34:15.008Z,10.40
2017-08-28T00:36:42.607Z,8.43
2017-08-28T00:39:10.381Z,8.80
2017-08-28T00:41:37.987Z,9.50
2017-08-28T00:44:06.296Z,10.80
2017-08-28T00:46:34.024Z,13.20
2017-08-28T00:49:01.638Z,11.40
2017-08-28T00:51:29.263Z,15.23
2017-08-28T00:53:56.868Z,12.27
2017-08-28T00:56:24.525Z,12.93
2017-08-28T00:58:52.141Z,13.00
2017-08-28T01:01:19.776Z,12.13
2017-08-28T01:03:47.375Z,12.60
2017-08-28T01:06:15.541Z,16.17
2017-08-28T01:08:43.161Z,12.37
2017-08-28T01:11:10.836Z,12.40
2017-08-28T01:13:38.585Z,11.13
2017-08-28T01:16:06.183Z,12.70
2017-08-28T01:18:33.802Z,10.47
2017-08-28T01:21:01.438Z,10.63
2017-08-28T01:23:29.193Z,10.77
2017-08-28T01:25:56.767Z,12.60
2017-08-28T01:28:24.811Z,11.20
2017-08-28T01:30:52.425Z,11.00
2017-08-28T01:33:20.053Z,11.33
2017-08-28T01:35:47.700Z,12.50
2017-08-28T01:38:15.408Z,11.87
2017-08-28T01:40:43.118Z,10.73
2017-08-28T01:43:10.722Z,11.30
2017-08-28T01:45:38.360Z,11.73
2017-08-28T01:48:05.996Z,11.23
2017-08-28T01:50:33.980Z,11.33
2017-08-28T01:53:01.686Z,11.47
2017-08-28T01:55:29.290Z,12.57
2017-08-28T01:57:56.924Z,10.10
2017-08-28T02:00:24.570Z,9.77
2017-08-28T02:02:52.306Z,10.10
2017-08-28T02:05:19.905Z,11.07
2017-08-28T02:07:47.790Z,10.33
2017-08-28T02:10:15.388Z,10.40
2017-08-28T02:12:42.973Z,10.47
2017-08-28T02:15:10.597Z,11.60
2017-08-28T02:17:38.176Z,11.57
2017-08-28T02:20:05.799Z,14.47
2017-08-28T02:22:33.396Z,13.77
2017-08-28T02:25:00.992Z,14.60
2017-08-28T02:27:28.599Z,15.23
2017-08-28T02:29:56.541Z,18.83
2017-08-28T02:32:24.150Z,18.50
2017-08-28T02:34:51.886Z,19.00
2017-08-28T02:37:19.519Z,19.73
2017-08-28T02:39:47.127Z,20.40
2017-08-28T02:42:14.735Z,17.00
2017-08-28T02:44:42.343Z,15.03
2017-08-28T02:47:09.965Z,18.10
2017-08-28T02:49:37.619Z,15.90
2017-08-28T02:52:05.764Z,21.07
2017-08-28T02:54:33.376Z,17.60
2017-08-28T02:57:00.975Z,32.33
2017-08-28T02:59:28.592Z,15.00
2017-08-28T03:01:56.217Z,26.67
2017-08-28T03:04:23.838Z,18.60
2017-08-28T03:06:51.442Z,16.73
2017-08-28T03:09:19.057Z,21.00
2017-08-28T03:11:46.707Z,20.77
2017-08-28T03:14:14.633Z,15.47
2017-08-28T03:16:42.233Z,19.90
2017-08-28T03:19:09.852Z,16.30
2017-08-28T03:24:11.469Z,19.90
2017-08-28T03:26:39.086Z,16.97
2017-08-28T03:29:06.677Z,14.10
2017-08-28T03:31:34.325Z,18.00
2017-08-28T03:34:01.937Z,13.60
2017-08-28T03:36:29.562Z,15.40
2017-08-28T03:38:57.156Z,17.73
2017-08-28T03:41:25.172Z,16.20
2017-08-28T03:43:52.773Z,14.53
2017-08-28T03:46:20.375Z,14.53
2017-08-28T03:48:47.976Z,12.97
2017-08-28T03:51:15.566Z,14.57
2017-08-28T03:53:43.182Z,15.90
2017-08-28T03:56:10.794Z,16.90
2017-08-28T03:58:38.462Z,12.80
2017-08-28T04:01:06.075Z,12.40
2017-08-28T04:03:33.680Z,19.10
2017-08-28T04:06:01.429Z,22.50
2017-08-28T04:08:29.115Z,15.60
2017-08-28T04:10:56.739Z,12.73
2017-08-28T04:13:24.538Z,14.23
2017-08-28T04:15:52.532Z,13.87
2017-08-28T04:18:20.139Z,14.87
2017-08-28T04:20:47.754Z,15.73
2017-08-28T04:23:15.385Z,11.47
2017-08-28T04:25:43.000Z,16.10
2017-08-28T04:28:11.247Z,31.87
2017-08-28T04:30:38.828Z,23.90
2017-08-28T04:33:06.814Z,37.53
2017-08-28T04:35:34.427Z,19.50
2017-08-28T04:38:02.029Z,11.77
2017-08-28T04:40:29.637Z,44.13
2017-08-28T04:42:57.677Z,14.40
2017-08-28T04:45:25.282Z,11.57
2017-08-28T04:47:52.870Z,13.23
2017-08-28T04:50:20.512Z,16.23
2017-08-28T04:52:48.608Z,12.77
2017-08-28T04:55:16.221Z,18.10
2017-08-28T04:57:44.159Z,14.50
2017-08-28T05:00:11.787Z,13.23
2017-08-28T05:02:39.679Z,13.60
2017-08-28T05:05:07.310Z,13.77
2017-08-28T05:07:34.899Z,16.67
2017-08-28T05:10:02.517Z,18.03
2017-08-28T05:12:30.141Z,16.37
2017-08-28T05:14:57.776Z,17.90
2017-08-28T05:17:25.565Z,24.37
2017-08-28T05:19:53.162Z,17.50
2017-08-28T05:22:20.802Z,15.97
2017-08-28T05:24:48.404Z,15.17
2017-08-28T05:27:16.165Z,16.73
2017-08-28T05:29:44.108Z,15.27
2017-08-28T05:32:11.733Z,16.43
2017-08-28T05:34:39.323Z,16.57
2017-08-28T05:37:06.970Z,15.83
2017-08-28T05:39:34.576Z,15.47
2017-08-28T05:42:02.193Z,13.90
2017-08-28T05:44:29.796Z,15.23
2017-08-28T05:46:57.957Z,13.73
2017-08-28T05:49:25.565Z,17.93
2017-08-28T05:51:53.346Z,15.10
2017-08-28T05:54:20.958Z,15.37
2017-08-28T05:56:48.600Z,15.60
2017-08-28T05:59:16.242Z,14.13
2017-08-28T06:01:43.846Z,15.60
2017-08-28T06:04:11.485Z,15.43
2017-08-28T06:06:39.210Z,14.23
2017-08-28T06:09:07.911Z,17.27
2017-08-28T06:11:35.520Z,17.13
2017-08-28T06:14:03.265Z,15.57
2017-08-28T06:16:30.866Z,19.30
2017-08-28T06:18:58.838Z,18.33
2017-08-28T06:21:26.434Z,20.65
2017-08-28T06:23:54.087Z,20.77
2017-08-28T06:26:21.714Z,18.70
2017-08-28T06:28:49.325Z,20.90
2017-08-28T06:31:16.952Z,18.60
2017-08-28T06:33:44.579Z,18.83
2017-08-28T06:36:13.751Z,19.67
2017-08-28T06:38:41.399Z,19.83
2017-08-28T06:41:09.007Z,21.80
2017-08-28T06:43:36.660Z,20.80
2017-08-28T06:46:04.255Z,20.13
2017-08-28T06:48:31.862Z,24.33
2017-08-28T06:50:59.479Z,18.90
2017-08-28T06:53:27.131Z,20.13
2017-08-28T06:55:54.859Z,22.53
2017-08-28T06:58:22.845Z,21.47
2017-08-28T07:00:50.453Z,23.00
2017-08-28T07:03:18.407Z,21.57
2017-08-28T07:05:46.014Z,22.57
2017-08-28T07:08:13.623Z,23.73
2017-08-28T07:10:41.265Z,21.97
2017-08-28T07:13:08.886Z,22.70
2017-08-28T07:15:36.550Z,25.37
2017-08-28T07:18:04.165Z,29.03
2017-08-28T07:20:31.980Z,32.20
2017-08-28T07:22:59.614Z,30.40
2017-08-28T07:25:27.241Z,29.50
2017-08-28T07:27:54.859Z,25.23
2017-08-28T07:30:22.775Z,26.17
2017-08-28T07:32:50.389Z,25.17
2017-08-28T07:35:17.972Z,26.40
2017-08-28T07:37:45.584Z,23.73
2017-08-28T07:40:13.183Z,28.30
2017-08-28T07:42:40.821Z,25.67
2017-08-28T07:45:08.416Z,25.10
2017-08-28T07:47:36.064Z,26.20
2017-08-28T07:50:03.680Z,27.97
2017-08-28T07:52:31.323Z,26.40
2017-08-28T07:54:59.039Z,27.30
2017-08-28T07:57:26.950Z,25.13
2017-08-28T07:59:54.536Z,27.87
2017-08-28T08:02:22.151Z,26.60
2017-08-28T08:04:49.788Z,32.20
2017-08-28T08:07:17.410Z,28.83
2017-08-28T08:09:45.044Z,26.43
2017-08-28T08:12:12.639Z,25.43
2017-08-28T08:14:40.278Z,30.00
2017-08-28T08:17:07.879Z,27.70
2017-08-28T08:19:35.822Z,30.03
2017-08-28T08:22:03.556Z,27.07
2017-08-28T08:24:31.238Z,29.07
2017-08-28T08:26:58.885Z,28.17
2017-08-28T08:29:26.636Z,27.60
2017-08-28T08:31:54.268Z,32.50
2017-08-28T08:34:23.772Z,27.80
2017-08-28T08:36:51.405Z,31.00
2017-08-28T08:39:19.028Z,30.60
2017-08-28T08:41:47.033Z,29.00
2017-08-28T08:44:14.692Z,29.20
2017-08-28T08:46:42.298Z,28.13
2017-08-28T08:49:09.943Z,27.80
2017-08-28T08:51:37.571Z,27.50
2017-08-28T08:54:05.222Z,28.90
2017-08-28T08:56:32.846Z,31.30
2017-08-28T08:59:00.477Z,27.47
2017-08-28T09:01:28.067Z,28.40
2017-08-28T09:03:55.697Z,28.00
2017-08-28T09:06:23.293Z,28.70
2017-08-28T09:08:51.169Z,37.83
2017-08-28T09:11:18.773Z,27.10
2017-08-28T09:13:46.388Z,33.27
2017-08-28T09:16:14.077Z,27.13
2017-08-28T09:18:41.825Z,30.67
2017-08-28T09:21:11.013Z,27.77
2017-08-28T09:23:38.635Z,31.80
2017-08-28T09:26:06.255Z,32.83
2017-08-28T09:28:33.978Z,32.13
2017-08-28T09:31:01.913Z,35.63
2017-08-28T09:33:29.506Z,30.17
2017-08-28T09:35:57.273Z,28.83
2017-08-28T09:38:24.942Z,31.37
2017-08-28T09:40:52.642Z,30.50
2017-08-28T09:43:20.319Z,24.00
2017-08-28T09:45:47.941Z,27.93
2017-08-28T09:48:15.772Z,26.20
2017-08-28T09:50:43.392Z,19.57
2017-08-28T09:53:11.368Z,22.90
2017-08-28T09:55:38.991Z,27.30
2017-08-28T09:58:06.682Z,18.63
2017-08-28T10:00:34.497Z,21.87
2017-08-28T10:03:02.085Z,26.30
2017-08-28T10:05:29.879Z,19.47
2017-08-28T10:07:57.490Z,21.63
2017-08-28T10:10:25.145Z,22.43
2017-08-28T10:12:52.755Z,26.10
2017-08-28T10:15:20.937Z,24.47
2017-08-28T10:17:54.015Z,23.03
2017-08-28T10:20:22.030Z,22.53
2017-08-28T10:22:50.435Z,21.43
2017-08-28T10:25:18.039Z,19.50
2017-08-28T10:27:45.650Z,24.17
2017-08-28T10:30:13.248Z,21.00
2017-08-28T10:32:40.908Z,21.87
2017-08-28T10:35:08.498Z,21.13
2017-08-28T10:37:36.489Z,19.23
2017-08-28T10:40:04.086Z,18.57
2017-08-28T10:42:31.869Z,18.07
2017-08-28T10:44:59.483Z,16.90
2017-08-28T10:47:27.094Z,21.37
2017-08-28T10:49:54.741Z,19.63
2017-08-28T10:52:22.365Z,19.47
2017-08-28T10:54:52.540Z,18.13
2017-08-28T10:57:20.128Z,16.40
2017-08-28T10:59:47.704Z,16.87
2017-08-28T11:02:15.339Z,16.40
2017-08-28T11:04:42.944Z,17.03
2017-08-28T11:07:10.588Z,16.67
2017-08-28T11:09:38.235Z,16.37
2017-08-28T11:12:06.220Z,13.23
2017-08-28T11:14:33.828Z,13.47
2017-08-28T11:17:01.450Z,15.63
2017-08-28T11:19:29.059Z,13.30
2017-08-28T11:21:56.685Z,15.07
2017-08-28T11:24:24.399Z,15.10
2017-08-28T11:26:51.999Z,12.93
2017-08-28T11:29:19.617Z,11.97
2017-08-28T11:31:47.224Z,11.10
2017-08-28T11:34:15.024Z,12.43
2017-08-28T11:36:42.629Z,11.93
2017-08-28T11:39:10.620Z,14.83
2017-08-28T11:41:38.242Z,12.13
2017-08-28T11:44:05.851Z,15.73
2017-08-28T11:46:33.484Z,11.10
2017-08-28T11:49:01.111Z,12.57
2017-08-28T11:51:28.737Z,14.93
2017-08-28T11:53:56.458Z,12.30
2017-08-28T11:56:24.410Z,15.13
2017-08-28T11:58:52.212Z,12.13
2017-08-28T12:01:19.842Z,11.53
2017-08-28T12:03:47.505Z,11.70
2017-08-28T12:06:15.108Z,15.13
2017-08-28T12:08:42.751Z,11.33
2017-08-28T12:11:10.365Z,45.13
2017-08-28T12:13:37.999Z,11.83
2017-08-28T12:16:05.624Z,11.70
2017-08-28T12:18:33.658Z,11.60
2017-08-28T12:21:01.261Z,9.97
2017-08-28T12:23:28.980Z,22.53
2017-08-28T12:25:56.605Z,10.83
2017-08-28T12:28:24.248Z,11.10
2017-08-28T12:30:51.896Z,14.10
2017-08-28T12:33:19.502Z,14.23
2017-08-28T12:35:47.143Z,12.43
2017-08-28T12:38:14.731Z,14.37
2017-08-28T12:40:42.679Z,13.60
2017-08-28T12:43:10.342Z,10.30
2017-08-28T12:45:37.954Z,37.40
2017-08-28T12:48:05.590Z,22.50
2017-08-28T12:50:33.214Z,21.17
2017-08-28T12:53:00.984Z,11.80
2017-08-28T12:55:28.574Z,12.33
2017-08-28T12:57:56.529Z,10.40
2017-08-28T13:00:24.203Z,11.03
2017-08-28T13:02:51.827Z,12.20
2017-08-28T13:05:19.464Z,12.27
2017-08-28T13:07:47.057Z,11.20
2017-08-28T13:10:14.841Z,12.90
2017-08-28T13:12:42.436Z,9.90
2017-08-28T13:15:10.050Z,9.77
2017-08-28T13:17:37.636Z,13.90
2017-08-28T13:20:05.271Z,9.57
2017-08-28T13:22:32.873Z,9.13
2017-08-28T13:25:00.745Z,9.03
2017-08-28T13:27:28.339Z,12.30
2017-08-28T13:29:55.952Z,15.10
2017-08-28T13:32:23.603Z,11.10
2017-08-28T13:34:51.196Z,10.73
2017-08-28T13:37:18.865Z,8.73
2017-08-28T13:39:46.823Z,9.70
2017-08-28T13:42:14.421Z,8.73
2017-08-28T13:44:42.012Z,8.63
2017-08-28T13:47:09.638Z,13.13
2017-08-28T13:49:37.268Z,8.63
2017-08-28T13:52:04.860Z,10.13
2017-08-28T13:54:32.503Z,16.20
2017-08-28T13:57:00.328Z,10.13
2017-08-28T13:59:28.227Z,9.60
2017-08-28T14:01:55.975Z,9.10
2017-08-28T14:04:23.566Z,9.90
2017-08-28T14:06:51.182Z,8.40
2017-08-28T14:09:18.870Z,8.87
2017-08-28T14:11:46.534Z,9.07
2017-08-28T14:14:14.127Z,8.03
2017-08-28T14:16:42.032Z,10.47
2017-08-28T14:19:10.550Z,10.77
2017-08-28T14:21:38.153Z,10.80
2017-08-28T14:24:05.782Z,8.90
2017-08-28T14:26:33.515Z,8.00
2017-08-28T14:29:01.137Z,8.37
2017-08-28T14:31:28.768Z,11.07
2017-08-28T14:33:56.818Z,8.53
2017-08-28T14:36:24.420Z,8.30
2017-08-28T14:38:52.142Z,8.60
2017-08-28T14:41:19.779Z,9.00
2017-08-28T14:43:47.489Z,9.20
2017-08-28T14:46:15.227Z,8.30
2017-08-28T14:48:42.836Z,12.20
2017-08-28T14:51:10.479Z,9.60
2017-08-28T14:53:38.069Z,8.13
2017-08-28T14:56:05.688Z,7.83
2017-08-28T14:58:33.288Z,8.30
2017-08-28T15:01:01.247Z,8.30
2017-08-28T15:03:29.073Z,7.97
2017-08-28T15:05:56.672Z,7.70
2017-08-28T15:08:24.293Z,6.80
2017-08-28T15:10:51.874Z,8.10
2017-08-28T15:13:19.495Z,7.40
2017-08-28T15:15:47.101Z,9.97
2017-08-28T15:18:14.712Z,7.83
2017-08-28T15:20:42.522Z,7.43
2017-08-28T15:23:10.450Z,6.63
2017-08-28T15:25:38.184Z,8.07
2017-08-28T15:28:05.797Z,9.73
2017-08-28T15:30:33.454Z,10.03
2017-08-28T15:33:01.047Z,7.97
2017-08-28T15:35:29.275Z,9.70
2017-08-28T15:37:56.902Z,11.00
2017-08-28T15:40:24.807Z,9.20
2017-08-28T15:42:52.478Z,11.60
2017-08-28T15:45:20.077Z,8.73
2017-08-28T15:47:47.717Z,8.97
2017-08-28T15:50:15.313Z,7.80
2017-08-28T15:52:42.933Z,7.03
2017-08-28T15:55:10.530Z,9.00
2017-08-28T15:57:38.204Z,8.87
2017-08-28T16:00:05.796Z,8.67
2017-08-28T16:02:33.709Z,8.23
2017-08-28T16:05:01.301Z,8.97
2017-08-28T16:07:29.013Z,9.20
2017-08-28T16:09:56.640Z,8.70
2017-08-28T16:12:24.237Z,7.50
2017-08-28T16:14:51.882Z,10.53
2017-08-28T16:17:19.491Z,10.57
2017-08-28T16:19:47.501Z,7.50
2017-08-28T16:22:15.083Z,10.93
2017-08-28T16:24:44.029Z,7.70
2017-08-28T16:27:11.701Z,7.37
2017-08-28T16:29:39.328Z,10.00
2017-08-28T16:32:06.930Z,8.37
2017-08-28T16:34:34.538Z,9.07
2017-08-28T16:37:02.222Z,8.33
2017-08-28T16:39:29.836Z,12.03
2017-08-28T16:41:57.783Z,8.60
2017-08-28T16:44:25.480Z,9.83
2017-08-28T16:46:53.332Z,8.80
2017-08-28T16:49:20.959Z,8.90
2017-08-28T16:51:48.577Z,10.53
2017-08-28T16:54:16.161Z,8.27
2017-08-28T16:56:43.781Z,10.00
2017-08-28T16:59:11.402Z,8.70
2017-08-28T17:01:39.023Z,8.37
2017-08-28T17:04:06.953Z,10.07
2017-08-28T17:06:34.666Z,10.57
2017-08-28T17:09:02.269Z,8.63
2017-08-28T17:11:29.879Z,10.03
2017-08-28T17:13:57.625Z,12.43
2017-08-28T17:16:25.320Z,12.03
2017-08-28T17:18:52.973Z,11.73
2017-08-28T17:21:20.903Z,9.70
2017-08-28T17:23:54.325Z,9.73
2017-08-28T17:26:22.269Z,11.00
2017-08-28T17:28:49.890Z,10.20
2017-08-28T17:31:17.508Z,10.13
2017-08-28T17:33:45.324Z,9.83
2017-08-28T17:36:12.913Z,11.80
2017-08-28T17:38:40.602Z,8.80
2017-08-28T17:41:08.260Z,9.60
2017-08-28T17:43:35.906Z,8.57
2017-08-28T17:46:03.492Z,10.27
2017-08-28T17:48:31.159Z,10.90
2017-08-28T17:50:58.781Z,8.83
2017-08-28T17:53:26.393Z,8.57
2017-08-28T17:55:54.074Z,8.70
2017-08-28T17:58:21.698Z,9.80
2017-08-28T18:00:50.228Z,8.53
2017-08-28T18:03:17.963Z,9.40
2017-08-28T18:05:45.655Z,9.83
2017-08-28T18:08:13.280Z,11.17
2017-08-28T18:10:41.237Z,10.13
2017-08-28T18:13:08.852Z,9.20
2017-08-28T18:15:36.508Z,10.70
2017-08-28T18:18:04.130Z,10.33
2017-08-28T18:20:31.770Z,10.00
2017-08-28T18:22:59.416Z,10.83
2017-08-28T18:25:27.168Z,14.73
2017-08-28T18:27:55.216Z,9.17
2017-08-28T18:30:22.842Z,9.97
2017-08-28T18:32:50.660Z,10.93
2017-08-28T18:35:18.321Z,10.43
2017-08-28T18:37:46.041Z,10.80
2017-08-28T18:40:13.675Z,11.70
2017-08-28T18:42:41.339Z,11.70
2017-08-28T18:45:08.984Z,11.47
2017-08-28T18:47:36.606Z,10.70
2017-08-28T18:50:04.607Z,11.00
2017-08-28T18:52:32.242Z,13.37
2017-08-28T18:54:59.878Z,11.27
2017-08-28T18:57:27.508Z,11.63
2017-08-28T18:59:55.518Z,12.87
2017-08-28T19:02:23.113Z,12.93
2017-08-28T19:04:50.780Z,12.90
2017-08-28T19:07:18.546Z,11.13
2017-08-28T19:09:46.285Z,15.93
2017-08-28T19:12:13.927Z,11.47
2017-08-28T19:14:41.543Z,11.73
2017-08-28T19:17:09.178Z,11.17
2017-08-28T19:19:37.071Z,11.80
2017-08-28T19:22:04.837Z,13.40
2017-08-28T19:24:32.432Z,14.43
2017-08-28T19:27:00.061Z,14.97
2017-08-28T19:29:27.657Z,13.00
2017-08-28T19:31:56.208Z,14.47
2017-08-28T19:34:38.589Z,12.27
2017-08-28T19:37:06.754Z,14.70
2017-08-28T19:39:34.354Z,19.70
2017-08-28T19:42:02.106Z,13.83
2017-08-28T19:44:29.836Z,11.80
2017-08-28T19:46:57.473Z,12.63
2017-08-28T19:49:25.103Z,14.80
2017-08-28T19:51:52.704Z,12.27
2017-08-28T19:54:20.654Z,12.50
2017-08-28T19:56:48.639Z,14.40
2017-08-28T19:59:16.403Z,12.60
2017-08-28T20:01:44.044Z,13.70
2017-08-28T20:04:11.652Z,11.63
2017-08-28T20:06:39.318Z,14.03
2017-08-28T20:09:06.920Z,23.37
2017-08-28T20:11:34.531Z,15.93
2017-08-28T20:14:02.174Z,12.43
2017-08-28T20:16:29.802Z,12.27
2017-08-28T20:18:57.511Z,12.90
2017-08-28T20:21:25.458Z,15.10
2017-08-28T20:23:53.107Z,13.23
2017-08-28T20:26:20.821Z,12.10
2017-08-28T20:28:48.457Z,16.43
2017-08-28T20:31:16.082Z,13.53
2017-08-28T20:33:43.709Z,13.37
2017-08-28T20:36:11.308Z,12.30
2017-08-28T20:38:38.926Z,15.77
2017-08-28T20:41:06.669Z,16.63
2017-08-28T20:43:34.593Z,13.47
2017-08-28T20:46:02.195Z,14.07
2017-08-28T20:48:30.144Z,14.10
2017-08-28T20:50:57.883Z,14.50
2017-08-28T20:53:25.611Z,19.60
2017-08-28T20:55:53.251Z,14.30
2017-08-28T20:58:20.872Z,13.80
2017-08-28T21:00:48.538Z,13.63
2017-08-28T21:03:16.162Z,12.80
2017-08-28T21:05:44.105Z,13.67
2017-08-28T21:08:11.727Z,17.60
2017-08-28T21:10:39.365Z,15.67
2017-08-28T21:13:07.006Z,18.27
2017-08-28T21:15:34.604Z,14.67
2017-08-28T21:18:02.244Z,15.27
2017-08-28T21:20:29.855Z,16.63
2017-08-28T21:22:57.827Z,14.77
2017-08-28T21:25:25.521Z,14.77
2017-08-28T21:27:53.180Z,14.57
2017-08-28T21:30:20.792Z,14.70
2017-08-28T21:32:48.834Z,12.70
2017-08-28T21:35:16.857Z,15.60
2017-08-28T21:37:44.503Z,18.70
2017-08-28T21:40:12.148Z,15.57
2017-08-28T21:42:39.760Z,14.70
2017-08-28T21:45:07.381Z,15.10
2017-08-28T21:47:34.986Z,17.97
2017-08-28T21:50:02.962Z,14.57
2017-08-28T21:52:30.589Z,14.83
2017-08-28T21:54:58.355Z,18.17
2017-08-28T21:57:25.995Z,14.83
2017-08-28T21:59:53.604Z,17.73
2017-08-28T22:02:21.288Z,15.33
2017-08-28T22:04:48.875Z,18.07
2017-08-28T22:07:16.497Z,15.27
2017-08-28T22:09:44.113Z,13.60
2017-08-28T22:12:11.824Z,19.03
2017-08-28T22:14:39.433Z,14.77
2017-08-28T22:17:07.045Z,18.30
2017-08-28T22:19:34.633Z,14.17
2017-08-28T22:22:02.369Z,14.50
2017-08-28T22:24:30.163Z,14.33
2017-08-28T22:26:57.757Z,13.97
2017-08-28T22:29:25.385Z,16.13
2017-08-28T22:31:52.981Z,16.10
2017-08-28T22:34:20.684Z,16.63
2017-08-28T22:36:48.398Z,17.67
2017-08-28T22:39:16.490Z,18.37
2017-08-28T22:41:44.115Z,16.57
2017-08-28T22:44:11.713Z,16.40
2017-08-28T22:46:39.338Z,17.63
2017-08-28T22:49:06.946Z,15.40
2017-08-28T22:51:34.574Z,16.30
2017-08-28T22:54:02.197Z,17.03
2017-08-28T22:56:29.830Z,19.30
2017-08-28T22:58:57.451Z,15.70
2017-08-28T23:01:26.056Z,15.33
2017-08-28T23:03:53.668Z,16.33
2017-08-28T23:06:21.277Z,19.57
2017-08-28T23:08:48.893Z,16.10
2017-08-28T23:11:16.823Z,17.97
2017-08-28T23:13:44.444Z,16.90
2017-08-28T23:16:12.166Z,15.70
2017-08-28T23:18:39.928Z,16.33
2017-08-28T23:21:07.692Z,16.97
2017-08-28T23:23:35.331Z,16.10
2017-08-28T23:26:02.949Z,18.30
2017-08-28T23:28:30.567Z,16.10
2017-08-28T23:30:58.150Z,17.40
2017-08-28T23:33:25.769Z,16.53
2017-08-28T23:35:53.402Z,18.53
2017-08-28T23:38:20.984Z,15.87
2017-08-28T23:40:48.621Z,16.67
2017-08-28T23:43:16.254Z,18.90
2017-08-28T23:45:43.839Z,16.47
2017-08-28T23:48:11.441Z,16.43
2017-08-28T23:50:39.048Z,25.23
2017-08-28T23:53:06.648Z,17.03
2017-08-28T23:55:34.318Z,17.13
2017-08-28T23:58:01.923Z,18.60
